Time;durP1;ratioP1;P1;durP2;ratioP2;P2;SDS_P1;SDS_P2;PMS_P1;PMS_P2;Temp;Humidity;BMP_temperature;BMP_pressure;BME280_temperature;BME280_humidity;BME280_pressure;Samples;Min_cycle;Max_cycle;Signal;HPM_P1;HPM_P2
2024/03/13 00:02:58;;;;;;;1.73;1.17;;;;;;;9.95;69.30;101136.00;15737834;28;20119;-50
2024/03/13 00:10:32;;;;;;;1.65;0.50;;;;;;;10.26;68.63;101134.81;15741250;28;20044;-51
2024/03/13 00:18:10;;;;;;;1.08;1.00;;;;;;;9.46;71.34;101152.13;15743198;28;20051;-49
2024/03/13 00:25:45;;;;;;;0.60;0.13;;;;;;;9.93;69.95;101143.44;15737396;28;20339;-51
2024/03/13 00:33:21;;;;;;;2.25;2.13;;;;;;;9.82;70.65;101151.19;15735810;28;20468;-51
2024/03/13 00:40:55;;;;;;;1.65;1.55;;;;;;;9.83;69.68;101140.25;15738011;28;20043;-50
2024/03/13 00:48:31;;;;;;;0.20;0.20;;;;;;;10.00;69.46;101146.16;15752837;28;20032;-50
2024/03/13 00:56:06;;;;;;;0.35;0.35;;;;;;;10.53;67.24;101148.31;15766350;28;20512;-54
2024/03/13 01:03:42;;;;;;;0.73;0.73;;;;;;;10.35;68.18;101147.03;15776329;28;20517;-50
2024/03/13 01:11:17;;;;;;;1.00;0.75;;;;;;;10.40;67.14;101133.84;15768225;28;20048;-53
2024/03/13 01:18:53;;;;;;;0.17;0.17;;;;;;;10.36;67.36;101137.13;15761583;28;20062;-50
2024/03/13 01:26:34;;;;;;;0.20;0.20;;;;;;;10.10;69.02;101127.03;15788007;28;20040;-50
2024/03/13 01:34:09;;;;;;;1.35;0.75;;;;;;;10.32;67.68;101130.50;15769013;28;20381;-51
2024/03/13 01:57:45;;;;;;;2.17;0.60;;;;;;;10.26;67.51;101136.63;15718895;28;20041;-52
2024/03/13 02:05:21;;;;;;;0.40;0.40;;;;;;;9.61;70.60;101128.78;15730731;28;20375;-50
2024/03/13 02:13:05;;;;;;;1.70;0.82;;;;;;;10.21;67.75;101121.94;15743112;28;20041;-52
2024/03/13 02:20:41;;;;;;;2.38;0.50;;;;;;;10.09;67.96;101136.09;15734137;28;20060;-50
2024/03/13 02:28:15;;;;;;;3.42;1.75;;;;;;;9.12;71.87;101118.84;15733714;28;20101;-51
2024/03/13 02:35:49;;;;;;;0.93;0.88;;;;;;;9.62;70.17;101129.59;15703659;28;20052;-50
2024/03/13 02:43:23;;;;;;;1.25;0.80;;;;;;;9.67;69.43;101130.66;15720706;28;20044;-52
2024/03/13 02:50:57;;;;;;;0.63;0.63;;;;;;;9.28;70.07;101133.00;15732942;28;20119;-52
2024/03/13 02:58:32;;;;;;;0.52;0.52;;;;;;;9.40;70.00;101126.94;15747142;28;20113;-52
2024/03/13 03:06:07;;;;;;;1.17;0.95;;;;;;;9.00;71.04;101125.75;15746834;28;20134;-50
2024/03/13 03:13:42;;;;;;;1.27;1.15;;;;;;;8.58;72.72;101129.16;15741640;28;20048;-52
2024/03/13 03:21:16;;;;;;;0.15;0.15;;;;;;;8.66;71.58;101135.25;15728911;28;20480;-51
2024/03/13 03:28:51;;;;;;;0.20;0.20;;;;;;;8.47;71.29;101143.03;15745978;28;20392;-52
2024/03/13 03:36:26;;;;;;;0.40;0.40;;;;;;;8.40;71.29;101130.41;15751528;28;20044;-52
2024/03/13 03:44:02;;;;;;;0.65;0.65;;;;;;;8.21;70.88;101136.31;15751483;28;20469;-47
2024/03/13 03:51:35;;;;;;;0.08;0.08;;;;;;;8.15;71.33;101135.16;15715645;28;20056;-48
2024/03/13 03:59:13;;;;;;;0.32;0.32;;;;;;;7.78;72.35;101145.94;15745994;28;20559;-49
2024/03/13 04:06:50;;;;;;;0.60;0.57;;;;;;;7.66;72.55;101135.69;15704741;28;20036;-47
2024/03/13 04:14:27;;;;;;;0.22;0.22;;;;;;;7.38;72.91;101134.59;15740670;28;20044;-49
2024/03/13 04:22:02;;;;;;;0.22;0.22;;;;;;;7.14;73.84;101133.78;15695703;28;20037;-48
2024/03/13 04:29:37;;;;;;;0.00;0.00;;;;;;;7.18;73.79;101139.63;15689714;28;20041;-49
2024/03/13 04:37:16;;;;;;;0.75;0.55;;;;;;;6.95;73.92;101147.59;15695305;28;20045;-52
2024/03/13 04:44:50;;;;;;;0.73;0.73;;;;;;;5.91;78.73;101156.66;15711540;28;20052;-48
2024/03/13 04:52:25;;;;;;;0.20;0.20;;;;;;;6.63;74.94;101152.13;15739854;28;20511;-47
2024/03/13 05:00:00;;;;;;;0.00;0.00;;;;;;;6.67;73.57;101149.94;15755030;28;20036;-49
2024/03/13 05:07:34;;;;;;;0.52;0.52;;;;;;;6.70;73.12;101160.22;15755428;28;20425;-49
2024/03/13 05:15:09;;;;;;;0.20;0.20;;;;;;;6.24;73.25;101161.94;15773140;28;20047;-47
2024/03/13 05:22:44;;;;;;;0.30;0.30;;;;;;;6.07;73.00;101169.16;15763270;28;20108;-50
2024/03/13 05:30:18;;;;;;;0.20;0.20;;;;;;;5.86;72.41;101159.81;15739748;28;20179;-50
2024/03/13 05:37:52;;;;;;;1.40;0.73;;;;;;;5.96;72.63;101165.00;15738051;28;20090;-49
2024/03/13 05:45:30;;;;;;;0.60;0.60;;;;;;;5.70;73.65;101178.50;15759764;28;20040;-52
2024/03/13 05:53:04;;;;;;;3.58;0.80;;;;;;;5.79;74.00;101187.31;15757144;28;20115;-48
2024/03/13 06:00:41;;;;;;;3.60;1.45;;;;;;;5.89;74.16;101169.31;15733668;28;20050;-48
2024/03/13 06:08:18;;;;;;;0.10;0.10;;;;;;;6.21;73.44;101172.94;15745887;28;20040;-48
2024/03/13 06:15:53;;;;;;;0.28;0.28;;;;;;;6.47;74.33;101178.84;15738707;28;20040;-51
2024/03/13 06:23:27;;;;;;;0.00;0.00;;;;;;;6.59;74.22;101185.47;15761695;28;20044;-48
2024/03/13 06:31:03;;;;;;;2.30;0.85;;;;;;;6.68;74.32;101193.44;15758165;28;20079;-52
2024/03/13 06:38:41;;;;;;;0.17;0.17;;;;;;;6.78;75.71;101202.06;15746213;28;20040;-56
2024/03/13 06:46:16;;;;;;;1.02;0.40;;;;;;;7.14;75.50;101202.38;15739167;28;20420;-52
2024/03/13 06:53:51;;;;;;;0.73;0.43;;;;;;;7.47;75.82;101219.00;15744129;28;20476;-51
2024/03/13 07:01:25;;;;;;;0.45;0.45;;;;;;;9.19;69.63;101210.00;15734383;28;20050;-52
2024/03/13 07:09:00;;;;;;;0.43;0.43;;;;;;;10.37;65.43;101219.28;15735407;28;20041;-52
2024/03/13 07:16:38;;;;;;;1.02;0.95;;;;;;;9.53;67.03;101221.88;15753607;28;20034;-50
2024/03/13 07:24:12;;;;;;;0.65;0.65;;;;;;;11.14;62.10;101226.22;15760236;28;20259;-49
2024/03/13 07:31:47;;;;;;;1.10;1.00;;;;;;;12.35;60.28;101228.81;15743199;28;20047;-47
2024/03/13 07:39:21;;;;;;;0.52;0.52;;;;;;;10.78;65.72;101239.94;15758798;28;20048;-52
2024/03/13 07:47:00;;;;;;;3.22;2.35;;;;;;;10.82;63.33;101223.22;15741697;28;20024;-48
2024/03/13 07:54:37;;;;;;;1.25;0.73;;;;;;;13.00;59.57;101226.97;15765903;28;20044;-48
2024/03/13 08:02:11;;;;;;;22.77;1.67;;;;;;;12.88;58.89;101236.78;15761406;28;20040;-48
2024/03/13 08:09:45;;;;;;;0.95;0.95;;;;;;;13.32;58.53;101235.13;15729075;28;20456;-51
2024/03/13 08:17:25;;;;;;;4.05;1.50;;;;;;;13.65;55.10;101238.44;15742577;28;20052;-49
2024/03/13 08:24:59;;;;;;;1.60;1.13;;;;;;;13.90;54.19;101243.06;15750406;28;20051;-54
2024/03/13 08:32:33;;;;;;;1.13;0.35;;;;;;;14.34;54.08;101238.50;15755886;28;20029;-53
2024/03/13 08:40:11;;;;;;;2.17;1.00;;;;;;;13.90;53.54;101237.66;15750608;28;20076;-52
2024/03/13 08:47:45;;;;;;;7.50;1.98;;;;;;;14.24;51.48;101242.53;15729334;28;20127;-49
2024/03/13 08:55:19;;;;;;;2.25;2.05;;;;;;;15.02;49.32;101247.31;15732505;28;20345;-50
2024/03/13 09:02:59;;;;;;;1.13;1.08;;;;;;;16.02;47.45;101240.47;15749431;28;20080;-53
2024/03/13 09:10:36;;;;;;;4.20;2.15;;;;;;;15.12;49.94;101235.97;15738031;28;20552;-49
2024/03/13 09:18:15;;;;;;;1.88;1.08;;;;;;;15.55;48.42;101243.06;15719165;28;20040;-50
2024/03/13 09:26:02;;;;;;;9.95;2.75;;;;;;;16.25;46.96;101245.91;15747987;28;20040;-53
2024/03/13 09:33:37;;;;;;;2.13;0.93;;;;;;;17.31;44.19;101230.28;15730252;28;20136;-50
2024/03/13 09:41:13;;;;;;;1.65;1.45;;;;;;;15.89;47.18;101225.28;15723765;28;20105;-53
2024/03/13 09:48:48;;;;;;;25.75;3.75;;;;;;;16.30;46.14;101223.53;15751987;22;20074;-50
2024/03/13 09:56:22;;;;;;;1.15;0.98;;;;;;;15.74;48.22;101224.91;15717766;28;20055;-50
2024/03/13 10:04:12;;;;;;;1.55;1.40;;;;;;;16.41;45.30;101225.41;15751522;28;20036;-50
2024/03/13 10:11:48;;;;;;;8.60;1.67;;;;;;;16.41;44.92;101222.69;15735992;28;20032;-49
2024/03/13 10:19:22;;;;;;;0.77;0.77;;;;;;;17.20;43.99;101214.03;15728200;28;20051;-52
2024/03/13 10:26:56;;;;;;;1.75;1.60;;;;;;;17.52;41.41;101209.75;15761602;28;20040;-48
2024/03/13 10:34:34;;;;;;;1.35;1.25;;;;;;;16.62;43.00;101191.44;15775095;28;20055;-53
2024/03/13 10:42:11;;;;;;;1.45;1.35;;;;;;;17.25;42.92;101187.00;15749410;28;20044;-50
2024/03/13 10:49:45;;;;;;;0.75;0.52;;;;;;;16.80;42.34;101176.94;15747215;28;20055;-54
2024/03/13 10:57:23;;;;;;;1.05;0.63;;;;;;;16.94;42.32;101174.78;15766717;28;20044;-48
2024/03/13 11:05:10;;;;;;;2.05;1.10;;;;;;;17.45;39.89;101179.22;15777706;28;20077;-51
2024/03/13 11:12:49;;;;;;;2.40;1.33;;;;;;;16.88;43.67;101162.16;15764937;28;20040;-48
2024/03/13 11:20:31;;;;;;;0.57;0.43;;;;;;;18.07;39.25;101168.28;15741719;28;20056;-49
2024/03/13 11:28:07;;;;;;;4.55;1.63;;;;;;;18.02;38.72;101161.97;15782628;28;20071;-46
2024/03/13 11:35:46;;;;;;;0.85;0.85;;;;;;;18.07;39.48;101162.03;15753547;28;20062;-49
2024/03/13 11:43:28;;;;;;;1.17;0.90;;;;;;;17.91;39.35;101157.47;15770553;28;20419;-47
2024/03/13 11:51:08;;;;;;;1.70;1.55;;;;;;;17.73;39.16;101159.38;15770671;28;20075;-47
2024/03/13 11:58:43;;;;;;;0.63;0.63;;;;;;;17.53;38.10;101138.13;15758508;28;20048;-53
2024/03/13 12:06:36;;;;;;;3.63;1.13;;;;;;;17.31;39.15;101145.34;15762785;28;20040;-47
2024/03/13 12:14:29;;;;;;;2.00;0.65;;;;;;;17.26;38.25;101127.09;15744690;28;20047;-49
2024/03/13 12:22:04;;;;;;;10.57;1.02;;;;;;;17.91;37.68;101114.84;15737765;28;20045;-51
2024/03/13 12:29:44;;;;;;;0.68;0.52;;;;;;;17.77;38.15;101105.41;15753914;28;20044;-47
2024/03/13 12:37:19;;;;;;;0.77;0.77;;;;;;;18.07;37.11;101099.56;15765289;28;20059;-48
2024/03/13 12:44:55;;;;;;;11.90;0.47;;;;;;;17.83;37.74;101104.41;15747024;28;20036;-47
2024/03/13 12:52:35;;;;;;;1.10;0.98;;;;;;;16.65;39.15;101101.53;15767101;28;20036;-47
2024/03/13 13:00:13;;;;;;;0.28;0.28;;;;;;;17.75;38.47;101096.66;15759851;28;20044;-49
2024/03/13 13:07:50;;;;;;;4.88;1.67;;;;;;;17.58;39.60;101093.94;15769003;28;20124;-46
2024/03/13 13:15:24;;;;;;;0.90;0.85;;;;;;;16.88;39.97;101094.38;15764923;28;20357;-50
2024/03/13 13:22:58;;;;;;;0.45;0.45;;;;;;;16.75;40.67;101090.91;15757641;28;20075;-52
2024/03/13 13:30:34;;;;;;;1.25;1.02;;;;;;;16.58;41.06;101079.16;15758560;28;20040;-48
2024/03/13 13:38:08;;;;;;;6.32;2.08;;;;;;;16.12;41.35;101072.81;15767877;28;20146;-49
2024/03/13 13:45:45;;;;;;;1.38;1.23;;;;;;;16.74;40.47;101069.44;15764552;28;20105;-50
2024/03/13 13:53:18;;;;;;;0.80;0.80;;;;;;;15.77;42.56;101084.53;15751327;28;20307;-50
2024/03/13 14:00:53;;;;;;;0.47;0.47;;;;;;;15.62;42.15;101067.91;15766778;28;20052;-48
2024/03/13 14:08:27;;;;;;;11.18;1.00;;;;;;;15.71;42.81;101062.97;15776851;28;20072;-48
2024/03/13 14:16:04;;;;;;;2.40;1.00;;;;;;;15.32;44.83;101055.28;15767857;28;20044;-48
2024/03/13 14:23:40;;;;;;;0.82;0.70;;;;;;;15.38;43.95;101058.13;15770966;28;20040;-52
2024/03/13 14:31:15;;;;;;;1.13;0.65;;;;;;;15.25;43.09;101043.78;15776262;28;20048;-47
2024/03/13 14:38:51;;;;;;;0.68;0.30;;;;;;;14.97;43.42;101046.31;15778005;28;20404;-46
2024/03/13 14:46:25;;;;;;;1.70;1.58;;;;;;;14.82;44.07;101054.03;15763320;28;20131;-45
2024/03/13 14:53:59;;;;;;;5.25;1.60;;;;;;;15.15;43.56;101045.41;15770495;28;20109;-46
2024/03/13 15:01:41;;;;;;;0.70;0.70;;;;;;;14.52;45.27;101041.38;15743774;28;20186;-47
2024/03/13 15:09:15;;;;;;;0.82;0.80;;;;;;;14.88;44.30;101055.81;15773165;28;20044;-48
2024/03/13 15:16:52;;;;;;;0.95;0.80;;;;;;;14.76;44.75;101048.50;15772272;28;20044;-48
2024/03/13 15:24:27;;;;;;;1.52;1.23;;;;;;;14.01;45.92;101056.91;15777254;28;20052;-47
2024/03/13 15:32:01;;;;;;;1.42;1.25;;;;;;;14.35;45.85;101067.31;15759834;28;20441;-46
2024/03/13 15:39:35;;;;;;;1.10;0.75;;;;;;;14.24;46.38;101056.22;15775603;28;20521;-49
2024/03/13 15:47:11;;;;;;;0.73;0.70;;;;;;;13.85;47.09;101051.28;15750012;28;20044;-49
2024/03/13 15:54:45;;;;;;;0.65;0.65;;;;;;;13.96;46.86;101051.38;15763834;28;20055;-46
2024/03/13 16:02:23;;;;;;;3.40;1.48;;;;;;;14.22;46.40;101055.63;15771979;28;20040;-46
2024/03/13 16:09:59;;;;;;;1.98;0.65;;;;;;;13.91;47.03;101053.09;15765126;28;20052;-47
2024/03/13 16:17:36;;;;;;;1.15;1.05;;;;;;;14.07;46.94;101052.47;15773216;28;20045;-48
2024/03/13 16:25:11;;;;;;;0.45;0.45;;;;;;;13.70;47.34;101054.34;15762332;28;20132;-46
2024/03/13 16:32:45;;;;;;;1.13;0.88;;;;;;;13.18;48.67;101045.66;15761750;28;20044;-47
2024/03/13 16:40:26;;;;;;;1.42;0.95;;;;;;;13.14;48.97;101060.63;15755299;28;20620;-47
2024/03/13 16:48:05;;;;;;;2.95;0.68;;;;;;;13.17;49.14;101070.97;15763788;28;20101;-46
2024/03/13 16:55:39;;;;;;;1.17;1.08;;;;;;;12.90;49.62;101079.22;15763304;28;20106;-49
2024/03/13 17:03:13;;;;;;;1.48;0.95;;;;;;;12.70;50.29;101082.06;15761704;28;20439;-45
2024/03/13 17:10:48;;;;;;;0.75;0.75;;;;;;;13.05;49.27;101092.38;15751370;28;20058;-48
2024/03/13 17:18:22;;;;;;;0.03;0.03;;;;;;;12.86;49.78;101086.09;15764363;28;20044;-47
2024/03/13 17:25:59;;;;;;;0.32;0.32;;;;;;;12.51;50.92;101105.34;15758045;28;20044;-47
2024/03/13 17:33:34;;;;;;;0.25;0.25;;;;;;;12.80;50.19;101099.63;15756690;28;20480;-47
2024/03/13 17:41:08;;;;;;;0.30;0.30;;;;;;;12.61;50.31;101104.88;15765948;28;20507;-46
2024/03/13 17:48:42;;;;;;;1.85;0.70;;;;;;;11.96;51.57;101112.16;15755545;28;20048;-49
2024/03/13 17:56:19;;;;;;;0.70;0.70;;;;;;;12.13;51.74;101107.16;15752702;28;20048;-47
2024/03/13 18:03:54;;;;;;;0.10;0.10;;;;;;;12.20;51.05;101110.63;15743549;28;20044;-47
2024/03/13 18:11:28;;;;;;;0.10;0.10;;;;;;;11.95;51.84;101118.56;15749451;28;20044;-47
2024/03/13 18:19:02;;;;;;;0.75;0.52;;;;;;;11.09;53.90;101118.53;15754440;28;20050;-50
2024/03/13 18:26:36;;;;;;;0.10;0.10;;;;;;;11.31;53.73;101119.19;15735383;28;20036;-50
2024/03/13 18:34:13;;;;;;;4.25;0.57;;;;;;;11.13;54.12;101122.47;15741400;28;20048;-45
2024/03/13 18:41:49;;;;;;;3.22;1.60;;;;;;;10.53;56.00;101111.56;15749334;28;20043;-45
2024/03/13 18:49:23;;;;;;;3.72;1.95;;;;;;;10.94;54.71;101110.66;15733426;28;20066;-46
2024/03/13 18:56:59;;;;;;;0.20;0.17;;;;;;;10.67;55.08;101105.22;15763551;28;20094;-47
2024/03/13 19:04:33;;;;;;;0.47;0.47;;;;;;;10.62;55.76;101123.78;15755326;28;20079;-51
2024/03/13 19:12:07;;;;;;;0.55;0.55;;;;;;;10.37;56.92;101118.13;15742823;28;20044;-48
2024/03/13 19:19:46;;;;;;;0.00;0.00;;;;;;;10.06;57.89;101129.28;15733990;28;20064;-46
2024/03/13 19:27:20;;;;;;;3.30;0.38;;;;;;;10.02;58.70;101119.13;15761737;28;20059;-47
2024/03/13 19:34:55;;;;;;;0.22;0.22;;;;;;;10.28;57.61;101129.22;15762732;28;20043;-47
2024/03/13 19:42:29;;;;;;;0.45;0.45;;;;;;;10.12;58.11;101125.81;15767131;28;20067;-46
2024/03/13 19:50:04;;;;;;;0.28;0.28;;;;;;;10.43;57.49;101129.91;15768918;28;20115;-47
2024/03/13 19:57:38;;;;;;;0.00;0.00;;;;;;;10.25;58.71;101133.13;15757116;28;20041;-52
2024/03/13 20:05:12;;;;;;;0.47;0.47;;;;;;;10.14;59.27;101128.28;15760952;28;20133;-49
2024/03/13 20:12:46;;;;;;;0.43;0.43;;;;;;;10.55;57.87;101131.00;15762606;28;20044;-51
2024/03/13 20:20:21;;;;;;;0.13;0.13;;;;;;;10.42;58.27;101129.09;15743487;28;20032;-48
2024/03/13 20:27:54;;;;;;;0.55;0.55;;;;;;;10.05;59.42;101126.78;15748555;28;20488;-48
2024/03/13 20:35:30;;;;;;;0.10;0.10;;;;;;;10.17;59.27;101118.00;15763384;28;20058;-52
2024/03/13 20:43:05;;;;;;;1.27;1.00;;;;;;;9.62;60.62;101119.69;15747391;28;20040;-53
2024/03/13 20:50:39;;;;;;;0.15;0.10;;;;;;;9.40;62.07;101116.22;15753556;28;20067;-49
2024/03/13 20:58:14;;;;;;;0.10;0.10;;;;;;;9.79;60.86;101114.88;15735734;28;20062;-48
2024/03/13 21:05:48;;;;;;;1.42;0.65;;;;;;;9.51;61.98;101106.00;15755078;28;20115;-54
2024/03/13 21:13:26;;;;;;;13.85;1.13;;;;;;;9.17;63.16;101095.00;15751135;28;20055;-50
2024/03/13 21:21:00;;;;;;;0.47;0.47;;;;;;;9.67;61.53;101090.47;15731043;28;20032;-49
2024/03/13 21:28:34;;;;;;;0.40;0.40;;;;;;;9.35;62.26;101088.34;15731098;28;20048;-49
2024/03/13 21:36:08;;;;;;;0.05;0.05;;;;;;;9.85;60.93;101089.97;15752131;28;20048;-47
2024/03/13 21:43:44;;;;;;;0.63;0.55;;;;;;;9.81;60.79;101106.63;15754882;28;20049;-51
2024/03/13 21:51:19;;;;;;;2.58;1.05;;;;;;;9.79;61.09;101097.94;15727291;28;20056;-51
2024/03/13 21:58:53;;;;;;;0.35;0.35;;;;;;;10.05;60.38;101097.28;15741508;28;20053;-54
2024/03/13 22:06:27;;;;;;;0.10;0.10;;;;;;;9.74;61.78;101101.22;15745655;28;20044;-51
2024/03/13 22:14:02;;;;;;;0.35;0.22;;;;;;;9.83;61.27;101105.41;15739181;28;20032;-52
2024/03/13 22:21:38;;;;;;;0.00;0.00;;;;;;;9.41;61.89;101100.97;15739600;28;20048;-49
2024/03/13 22:29:12;;;;;;;0.30;0.30;;;;;;;9.32;62.24;101088.72;15729159;28;20032;-50
2024/03/13 22:36:48;;;;;;;3.10;1.45;;;;;;;9.09;63.69;101095.16;15769887;28;20454;-52
2024/03/13 22:44:21;;;;;;;0.40;0.10;;;;;;;9.05;64.33;101093.88;15760383;28;20500;-51
2024/03/13 22:51:56;;;;;;;0.17;0.17;;;;;;;9.50;63.11;101097.13;15765766;28;20032;-50
2024/03/13 22:59:30;;;;;;;0.00;0.00;;;;;;;9.54;62.54;101097.56;15758686;28;20076;-50
2024/03/13 23:07:06;;;;;;;0.47;0.20;;;;;;;9.50;62.17;101099.81;15756262;28;20044;-50
2024/03/13 23:14:43;;;;;;;3.95;0.80;;;;;;;9.10;64.26;101095.97;15763810;28;20044;-47
2024/03/13 23:22:17;;;;;;;0.00;0.00;;;;;;;9.22;64.51;101094.41;15745924;28;20417;-53
2024/03/13 23:29:51;;;;;;;0.25;0.25;;;;;;;9.30;64.29;101093.47;15742887;28;20131;-50
2024/03/13 23:37:25;;;;;;;0.15;0.15;;;;;;;9.57;63.42;101095.34;15746037;28;20040;-52
2024/03/13 23:44:59;;;;;;;0.00;0.00;;;;;;;9.74;62.79;101098.53;15756629;28;20040;-52
2024/03/13 23:52:34;;;;;;;0.35;0.35;;;;;;;9.67;63.29;101098.50;15769250;28;20062;-50
